Time;durP1;ratioP1;P1;durP2;ratioP2;P2;SDS_P1;SDS_P2;PMS_P1;PMS_P2;Temp;Humidity;BMP_temperature;BMP_pressure;BME280_temperature;BME280_humidity;BME280_pressure;Samples;Min_cycle;Max_cycle;Signal;HPM_P1;HPM_P2
2021/09/02 00:01:20;;;;;;;5.85;4.55;;;12.40;99.90;;;;;;5014292;28;20046;-46
2021/09/02 00:03:46;;;;;;;6.57;4.85;;;12.40;99.90;;;;;;5015222;28;20394;-48
2021/09/02 00:06:11;;;;;;;7.80;5.22;;;12.50;99.90;;;;;;5014842;28;20061;-46
2021/09/02 00:08:37;;;;;;;6.75;4.75;;;12.50;99.90;;;;;;5015337;28;20034;-51
2021/09/02 00:11:02;;;;;;;9.70;6.50;;;12.60;99.90;;;;;;5014905;28;20022;-45
2021/09/02 00:13:29;;;;;;;5.15;4.10;;;12.60;99.90;;;;;;5014918;28;20029;-47
2021/09/02 00:15:55;;;;;;;6.47;4.70;;;12.60;99.90;;;;;;5013873;28;20034;-48
2021/09/02 00:18:20;;;;;;;8.90;5.50;;;12.70;99.90;;;;;;5014756;28;20504;-46
2021/09/02 00:20:46;;;;;;;10.18;5.45;;;12.70;99.90;;;;;;5014521;28;20097;-47
2021/09/02 00:23:11;;;;;;;8.48;6.00;;;12.70;99.90;;;;;;5014560;28;20033;-48
2021/09/02 00:25:37;;;;;;;7.65;4.10;;;12.70;99.90;;;;;;5014465;28;20569;-45
2021/09/02 00:28:03;;;;;;;5.47;4.30;;;12.80;99.90;;;;;;5014362;28;20022;-47
2021/09/02 00:30:28;;;;;;;8.43;5.88;;;12.70;99.90;;;;;;5014555;28;20026;-49
2021/09/02 00:32:54;;;;;;;7.75;5.18;;;12.80;99.90;;;;;;5013563;28;20477;-45
2021/09/02 00:35:19;;;;;;;8.45;5.28;;;12.70;99.90;;;;;;5014110;28;20026;-47
2021/09/02 00:37:45;;;;;;;6.15;4.90;;;12.70;99.90;;;;;;5014405;28;20034;-46
2021/09/02 00:40:10;;;;;;;6.82;5.03;;;12.70;99.90;;;;;;5014176;28;20034;-47
2021/09/02 00:42:36;;;;;;;6.22;5.03;;;12.70;99.90;;;;;;5014415;28;20109;-44
2021/09/02 00:45:02;;;;;;;7.13;4.93;;;12.70;99.90;;;;;;5014231;28;20421;-45
2021/09/02 00:47:28;;;;;;;6.93;5.53;;;12.70;99.90;;;;;;5013394;28;20104;-45
2021/09/02 00:49:54;;;;;;;7.25;4.70;;;12.70;99.90;;;;;;5014112;28;20480;-49
2021/09/02 00:52:26;;;;;;;8.57;5.30;;;12.70;99.90;;;;;;5014146;28;20026;-48
2021/09/02 00:54:55;;;;;;;8.00;5.63;;;12.70;99.90;;;;;;5014096;28;20034;-46
2021/09/02 00:57:26;;;;;;;7.72;4.97;;;12.70;99.90;;;;;;5014216;28;20033;-48
2021/09/02 00:59:56;;;;;;;8.07;5.05;;;12.60;99.90;;;;;;5014031;28;20474;-48
2021/09/02 01:02:28;;;;;;;6.90;4.93;;;12.60;99.90;;;;;;5012890;28;20025;-47
2021/09/02 01:04:56;;;;;;;7.03;4.93;;;12.60;99.90;;;;;;5013733;28;20165;-46
2021/09/02 01:07:23;;;;;;;4.78;3.92;;;12.50;99.90;;;;;;5013916;28;20026;-46
2021/09/02 01:09:50;;;;;;;6.78;5.07;;;12.50;99.90;;;;;;5013883;28;20037;-45
2021/09/02 01:12:38;;;;;;;6.32;4.90;;;12.40;99.90;;;;;;5013782;28;20485;-49
2021/09/02 01:15:09;;;;;;;4.63;4.07;;;12.40;99.90;;;;;;5013593;28;20072;-49
2021/09/02 01:17:35;;;;;;;7.53;4.53;;;12.30;99.90;;;;;;5012885;28;20458;-44
2021/09/02 01:20:01;;;;;;;5.88;4.82;;;12.20;99.90;;;;;;5013589;28;20030;-49
2021/09/02 01:22:29;;;;;;;9.93;5.40;;;12.20;99.90;;;;;;5013580;28;20500;-45
2021/09/02 01:25:24;;;;;;;4.80;4.28;;;12.10;99.90;;;;;;5013574;28;20034;-47
2021/09/02 01:27:53;;;;;;;5.80;4.63;;;12.10;99.90;;;;;;5008840;28;20077;-48
2021/09/02 01:30:19;;;;;;;7.30;4.78;;;12.00;99.90;;;;;;5013456;28;20034;-46
2021/09/02 01:32:48;;;;;;;6.38;4.40;;;12.00;99.90;;;;;;5012065;28;20036;-47
2021/09/02 01:35:15;;;;;;;7.45;5.30;;;12.00;99.90;;;;;;5013270;28;20032;-49
2021/09/02 01:37:55;;;;;;;5.40;4.28;;;11.90;99.90;;;;;;5013382;28;20030;-46
2021/09/02 01:40:29;;;;;;;6.05;4.72;;;11.90;99.90;;;;;;5013293;28;20026;-49
2021/09/02 01:42:57;;;;;;;6.70;5.03;;;11.90;99.90;;;;;;5013301;28;20026;-47
2021/09/02 01:45:22;;;;;;;6.25;4.45;;;11.90;99.90;;;;;;5013232;28;20037;-49
2021/09/02 01:47:48;;;;;;;6.05;4.72;;;11.80;99.90;;;;;;5012394;28;20021;-47
2021/09/02 01:50:22;;;;;;;6.22;4.90;;;11.80;99.90;;;;;;5013065;28;20495;-48
2021/09/02 01:52:49;;;;;;;5.32;4.32;;;11.80;99.90;;;;;;5013248;28;20037;-46
2021/09/02 01:55:15;;;;;;;6.57;3.63;;;11.70;99.90;;;;;;5013026;28;20512;-48
2021/09/02 01:57:41;;;;;;;5.82;4.55;;;11.70;99.90;;;;;;5013129;28;20030;-45
2021/09/02 02:00:10;;;;;;;7.40;4.70;;;11.60;99.90;;;;;;5013032;28;20069;-44
2021/09/02 02:02:36;;;;;;;6.85;5.35;;;11.50;99.90;;;;;;5012140;28;20584;-47
2021/09/02 02:05:01;;;;;;;5.75;4.03;;;11.50;99.90;;;;;;5012720;28;20078;-47
2021/09/02 02:07:27;;;;;;;5.00;3.88;;;11.40;99.90;;;;;;5012760;28;20042;-47
2021/09/02 02:09:53;;;;;;;6.20;3.80;;;11.40;99.90;;;;;;5013002;28;20033;-46
2021/09/02 02:12:19;;;;;;;6.78;4.50;;;11.40;99.90;;;;;;5012925;28;20596;-46
2021/09/02 02:14:44;;;;;;;8.80;5.05;;;11.30;99.90;;;;;;5012854;28;20062;-47
2021/09/02 02:17:10;;;;;;;7.20;5.60;;;11.20;99.90;;;;;;5011907;28;20038;-47
2021/09/02 02:19:35;;;;;;;7.90;5.18;;;11.20;99.90;;;;;;5012809;28;20046;-47
2021/09/02 02:22:01;;;;;;;7.53;5.15;;;11.20;99.90;;;;;;5012886;28;20026;-47
2021/09/02 02:24:26;;;;;;;9.70;5.20;;;11.10;99.90;;;;;;5012785;28;20105;-45
2021/09/02 02:26:52;;;;;;;7.75;4.85;;;11.10;99.90;;;;;;5012873;28;20092;-47
2021/09/02 02:29:18;;;;;;;9.02;5.40;;;11.00;99.90;;;;;;5012733;28;20034;-48
2021/09/02 02:31:43;;;;;;;8.48;4.68;;;11.00;99.90;;;;;;5011913;28;20366;-47
2021/09/02 02:34:09;;;;;;;7.47;5.05;;;11.00;99.90;;;;;;5012564;28;20030;-44
2021/09/02 02:36:34;;;;;;;10.07;5.43;;;10.90;99.90;;;;;;5012682;28;20462;-45
2021/09/02 02:39:00;;;;;;;8.20;4.75;;;10.80;99.90;;;;;;5012547;28;20405;-47
2021/09/02 02:41:26;;;;;;;7.00;5.05;;;10.80;99.90;;;;;;5012364;28;20054;-47
2021/09/02 02:43:51;;;;;;;6.50;5.03;;;10.80;99.90;;;;;;5012519;28;20026;-47
2021/09/02 02:46:17;;;;;;;7.05;4.75;;;10.80;99.90;;;;;;5015430;28;20456;-46
2021/09/02 02:48:42;;;;;;;5.63;4.47;;;10.70;99.90;;;;;;5016429;28;20077;-48
2021/09/02 02:51:08;;;;;;;7.75;5.22;;;10.70;99.90;;;;;;5016396;28;20021;-48
2021/09/02 02:53:33;;;;;;;8.05;5.38;;;10.60;99.90;;;;;;5016282;28;20029;-51
2021/09/02 02:55:59;;;;;;;6.95;4.68;;;10.60;99.90;;;;;;5016315;28;20029;-46
2021/09/02 02:58:24;;;;;;;9.60;6.07;;;10.50;99.90;;;;;;5016257;28;20037;-52
2021/09/02 03:00:50;;;;;;;7.68;5.80;;;10.50;99.90;;;;;;5015405;28;20037;-51
2021/09/02 03:03:15;;;;;;;9.55;5.05;;;10.50;99.90;;;;;;5015947;28;20413;-48
2021/09/02 03:05:41;;;;;;;6.20;4.30;;;10.50;99.90;;;;;;5016149;28;20030;-48
2021/09/02 03:08:06;;;;;;;6.70;5.30;;;10.50;99.90;;;;;;5016202;28;20109;-51
2021/09/02 03:10:32;;;;;;;7.40;5.30;;;10.40;99.90;;;;;;5016060;28;20022;-47
2021/09/02 03:12:58;;;;;;;8.15;5.50;;;10.40;99.90;;;;;;5016089;28;20038;-45
2021/09/02 03:15:23;;;;;;;8.55;5.38;;;10.30;99.90;;;;;;5015912;28;20096;-48
2021/09/02 03:17:49;;;;;;;6.78;4.38;;;10.30;99.90;;;;;;5015061;28;20547;-44
2021/09/02 03:20:15;;;;;;;6.72;4.60;;;10.30;99.90;;;;;;5015715;28;20018;-45
2021/09/02 03:22:41;;;;;;;6.95;5.13;;;10.20;99.90;;;;;;5015864;28;20022;-47
2021/09/02 03:25:08;;;;;;;6.00;4.72;;;10.20;99.90;;;;;;5015809;28;20073;-46
2021/09/02 03:27:34;;;;;;;9.27;4.88;;;10.10;99.90;;;;;;5015762;28;20076;-50
2021/09/02 03:30:00;;;;;;;6.03;4.60;;;10.10;99.90;;;;;;5015728;28;20034;-49
2021/09/02 03:32:25;;;;;;;6.43;4.65;;;10.10;99.90;;;;;;5014709;28;20060;-48
2021/09/02 03:34:51;;;;;;;5.63;4.38;;;10.10;99.90;;;;;;5015533;28;20030;-47
2021/09/02 03:37:16;;;;;;;5.40;3.83;;;10.00;99.90;;;;;;5015531;28;20452;-47
2021/09/02 03:39:42;;;;;;;6.55;4.78;;;10.00;99.90;;;;;;5015559;28;20030;-46
2021/09/02 03:42:07;;;;;;;6.43;4.82;;;10.00;99.90;;;;;;5015596;28;20030;-45
2021/09/02 03:44:33;;;;;;;4.95;3.65;;;9.90;99.90;;;;;;5015443;28;20457;-47
2021/09/02 03:46:58;;;;;;;7.88;5.07;;;9.90;99.90;;;;;;5014352;28;20038;-47
2021/09/02 03:49:24;;;;;;;7.47;4.60;;;9.90;99.90;;;;;;5015251;28;20034;-45
2021/09/02 03:51:49;;;;;;;8.82;4.50;;;9.90;99.90;;;;;;5015355;28;20080;-47
2021/09/02 03:54:15;;;;;;;7.78;5.18;;;9.80;99.90;;;;;;5015281;28;20084;-47
2021/09/02 03:56:40;;;;;;;9.30;6.13;;;9.80;99.90;;;;;;5014455;28;20031;-47
2021/09/02 03:59:06;;;;;;;11.82;5.75;;;9.80;99.90;;;;;;5015245;28;20105;-48
2021/09/02 04:01:31;;;;;;;10.45;5.00;;;9.80;99.90;;;;;;5014269;28;20037;-44
2021/09/02 04:03:57;;;;;;;8.68;5.63;;;9.80;99.90;;;;;;5014888;28;20069;-47
2021/09/02 04:06:22;;;;;;;6.95;5.20;;;9.80;99.90;;;;;;5014997;28;20061;-45
2021/09/02 04:08:48;;;;;;;7.80;5.25;;;9.80;99.90;;;;;;5015117;28;20029;-49
2021/09/02 04:11:13;;;;;;;8.60;5.40;;;9.80;99.90;;;;;;5014906;28;20038;-46
2021/09/02 04:13:39;;;;;;;8.38;4.75;;;9.80;99.90;;;;;;5014900;28;20034;-45
2021/09/02 04:16:05;;;;;;;6.45;5.28;;;9.80;99.90;;;;;;5013873;28;20054;-44
2021/09/02 04:18:30;;;;;;;7.85;3.85;;;9.80;99.90;;;;;;5014606;28;20030;-48
2021/09/02 04:20:57;;;;;;;6.45;5.10;;;9.80;99.90;;;;;;5014819;28;20417;-45
2021/09/02 04:23:23;;;;;;;6.68;4.80;;;9.80;99.90;;;;;;5009698;28;20026;-47
2021/09/02 04:25:48;;;;;;;6.78;5.43;;;9.80;99.90;;;;;;4994966;28;20470;-47
2021/09/02 04:28:14;;;;;;;6.80;4.47;;;9.80;99.90;;;;;;4993715;28;20078;-47
2021/09/02 04:30:39;;;;;;;6.80;4.28;;;9.80;99.90;;;;;;4992459;28;20046;-45
2021/09/02 04:33:05;;;;;;;6.00;4.25;;;9.90;99.90;;;;;;4992802;28;20335;-45
2021/09/02 04:35:30;;;;;;;6.78;4.28;;;9.90;99.90;;;;;;5008181;28;20113;-46
2021/09/02 04:37:56;;;;;;;4.57;3.75;;;9.90;99.90;;;;;;5013034;28;20030;-44
2021/09/02 04:40:22;;;;;;;6.18;4.10;;;10.00;99.90;;;;;;5003948;28;20072;-46
2021/09/02 04:42:48;;;;;;;4.03;3.63;;;10.10;99.90;;;;;;5013186;28;20022;-44
2021/09/02 04:45:13;;;;;;;4.32;3.58;;;10.10;99.90;;;;;;5014188;28;20030;-45
2021/09/02 04:47:40;;;;;;;7.78;3.95;;;10.20;99.90;;;;;;5012778;28;20026;-45
2021/09/02 04:50:08;;;;;;;7.43;4.55;;;10.30;99.90;;;;;;5014018;28;20029;-44
2021/09/02 04:52:33;;;;;;;7.00;4.38;;;10.50;99.90;;;;;;5013841;28;20049;-43
2021/09/02 04:54:59;;;;;;;4.88;3.75;;;10.60;99.90;;;;;;5014101;28;20061;-46
2021/09/02 04:57:24;;;;;;;5.88;4.32;;;10.80;99.90;;;;;;5013959;28;20430;-45
2021/09/02 04:59:50;;;;;;;4.55;3.70;;;10.90;99.90;;;;;;5014098;28;20022;-48
2021/09/02 05:02:16;;;;;;;4.68;3.72;;;11.10;99.90;;;;;;5012937;28;20383;-47
2021/09/02 05:04:41;;;;;;;4.82;4.20;;;11.20;99.90;;;;;;5013710;28;20081;-46
2021/09/02 05:07:07;;;;;;;6.93;4.05;;;11.30;99.90;;;;;;5013744;28;20022;-45
2021/09/02 05:09:33;;;;;;;7.43;3.72;;;11.50;99.90;;;;;;5013017;28;20079;-43
2021/09/02 05:11:59;;;;;;;4.40;3.75;;;11.70;99.90;;;;;;5013859;28;20109;-43
2021/09/02 05:14:24;;;;;;;5.65;3.53;;;12.10;99.90;;;;;;5013516;28;20029;-50
2021/09/02 05:16:50;;;;;;;6.10;3.83;;;12.90;99.90;;;;;;5011930;28;20038;-46
2021/09/02 05:19:15;;;;;;;6.65;4.18;;;13.60;99.90;;;;;;5013699;28;20033;-45
2021/09/02 05:21:41;;;;;;;5.68;3.42;;;14.30;99.90;;;;;;5013578;28;20022;-48
2021/09/02 05:24:06;;;;;;;3.28;2.92;;;14.60;99.90;;;;;;5013682;28;20026;-47
2021/09/02 05:26:32;;;;;;;4.50;3.22;;;15.20;99.90;;;;;;5013516;28;20437;-47
2021/09/02 05:28:57;;;;;;;5.85;3.85;;;15.90;99.90;;;;;;5013526;28;20041;-48
2021/09/02 05:31:23;;;;;;;3.72;3.15;;;16.50;99.90;;;;;;5012214;28;20025;-47
2021/09/02 05:33:49;;;;;;;7.15;3.85;;;16.80;99.90;;;;;;5013556;28;20021;-49
2021/09/02 05:36:15;;;;;;;4.93;3.10;;;16.60;99.90;;;;;;5013414;28;20044;-47
2021/09/02 05:38:40;;;;;;;5.95;3.47;;;16.30;99.90;;;;;;5013337;28;20045;-48
2021/09/02 05:41:06;;;;;;;6.32;3.83;;;16.00;99.90;;;;;;5013331;28;20022;-48
2021/09/02 05:43:32;;;;;;;5.15;3.30;;;15.70;99.90;;;;;;5013212;28;20129;-48
2021/09/02 05:45:58;;;;;;;4.95;3.20;;;15.50;99.90;;;;;;5012114;28;20034;-46
2021/09/02 05:48:24;;;;;;;3.92;3.38;;;15.30;99.90;;;;;;5013142;28;20037;-46
2021/09/02 05:50:52;;;;;;;4.40;3.17;;;15.10;99.90;;;;;;5013168;28;20106;-46
2021/09/02 05:53:17;;;;;;;6.03;3.30;;;15.00;99.90;;;;;;5013097;28;20109;-47
2021/09/02 05:55:43;;;;;;;4.93;3.05;;;15.10;99.90;;;;;;5012972;28;20122;-44
2021/09/02 05:58:08;;;;;;;6.75;3.40;;;15.00;99.90;;;;;;5013127;28;20028;-45
2021/09/02 06:00:34;;;;;;;3.95;3.42;;;14.90;99.90;;;;;;5012000;28;20022;-47
2021/09/02 06:02:59;;;;;;;6.05;3.67;;;14.90;99.90;;;;;;5012383;28;20025;-45
2021/09/02 06:05:26;;;;;;;4.90;3.58;;;15.00;99.90;;;;;;4993661;28;20494;-48
2021/09/02 06:07:51;;;;;;;4.88;3.13;;;15.00;99.90;;;;;;4976155;28;20070;-44
2021/09/02 06:10:17;;;;;;;3.55;3.10;;;15.10;99.90;;;;;;5012969;28;20026;-47
2021/09/02 06:12:43;;;;;;;3.97;3.17;;;15.30;99.90;;;;;;5012883;28;20029;-45
2021/09/02 06:15:10;;;;;;;5.35;3.63;;;15.60;99.90;;;;;;5012927;28;20029;-44
2021/09/02 06:17:36;;;;;;;7.45;4.45;;;15.90;99.90;;;;;;5011768;28;20078;-47
2021/09/02 06:20:06;;;;;;;5.65;3.40;;;16.10;99.90;;;;;;5016552;28;20469;-45
2021/09/02 06:22:32;;;;;;;6.13;3.92;;;16.20;99.90;;;;;;5019275;28;20014;-48
2021/09/02 06:24:58;;;;;;;7.88;4.03;;;16.80;99.90;;;;;;5019341;28;20041;-48
2021/09/02 06:27:24;;;;;;;5.70;3.58;;;18.10;99.90;;;;;;5019331;28;20470;-47
2021/09/02 06:29:49;;;;;;;5.57;3.22;;;19.60;99.90;;;;;;5019167;28;20096;-51
2021/09/02 06:32:15;;;;;;;7.95;4.03;;;21.10;99.90;;;;;;5018281;28;20018;-46
2021/09/02 06:34:40;;;;;;;4.82;3.75;;;22.40;99.90;;;;;;5019049;28;20036;-48
2021/09/02 06:37:06;;;;;;;4.82;3.40;;;23.60;99.90;;;;;;5019192;28;20034;-43
2021/09/02 06:39:31;;;;;;;4.43;3.33;;;24.50;99.90;;;;;;5019221;28;20033;-48
2021/09/02 06:41:57;;;;;;;5.22;3.90;;;25.40;99.90;;;;;;5019168;28;20034;-46
2021/09/02 06:44:22;;;;;;;8.93;4.18;;;25.80;99.90;;;;;;5019146;28;20105;-50
2021/09/02 06:46:47;;;;;;;6.45;4.03;;;26.40;99.90;;;;;;5018189;28;20497;-48
2021/09/02 06:49:13;;;;;;;4.53;3.78;;;26.90;99.90;;;;;;5019169;28;20057;-48
2021/09/02 06:51:39;;;;;;;6.10;3.25;;;27.50;99.90;;;;;;5019047;28;20038;-45
2021/09/02 06:54:05;;;;;;;6.85;4.57;;;28.00;99.90;;;;;;5019146;28;20442;-49
2021/09/02 06:56:31;;;;;;;7.13;3.88;;;28.40;99.90;;;;;;5019027;28;20488;-45
2021/09/02 06:58:56;;;;;;;8.93;4.25;;;28.80;99.90;;;;;;5019012;28;20025;-44
2021/09/02 07:01:22;;;;;;;9.65;4.40;;;29.20;99.90;;;;;;5018080;28;20469;-44
2021/09/02 07:03:47;;;;;;;5.18;4.15;;;29.70;97.60;;;;;;5018777;28;20045;-44
2021/09/02 07:06:13;;;;;;;4.78;3.67;;;30.00;94.80;;;;;;5019068;28;20485;-45
2021/09/02 07:08:39;;;;;;;7.57;4.30;;;30.10;92.70;;;;;;5018881;28;20058;-43
2021/09/02 07:11:04;;;;;;;5.30;3.72;;;30.20;90.10;;;;;;5018981;28;20524;-46
2021/09/02 07:13:31;;;;;;;6.45;4.53;;;29.60;90.20;;;;;;5018977;28;20054;-45
2021/09/02 07:15:57;;;;;;;5.40;3.33;;;29.10;90.30;;;;;;5017785;28;20532;-44
2021/09/02 07:18:22;;;;;;;6.30;3.75;;;28.80;90.50;;;;;;5018951;28;20113;-46
2021/09/02 07:20:48;;;;;;;3.97;3.28;;;28.80;86.70;;;;;;5018848;28;20025;-43
2021/09/02 07:23:13;;;;;;;5.20;3.72;;;29.00;87.60;;;;;;5019016;28;20096;-45
2021/09/02 07:25:39;;;;;;;4.05;3.60;;;29.50;84.20;;;;;;5018759;28;20029;-45
2021/09/02 07:28:05;;;;;;;3.70;2.85;;;30.10;80.40;;;;;;5018867;28;20429;-44
2021/09/02 07:30:30;;;;;;;8.68;4.75;;;30.60;76.70;;;;;;5017210;28;20040;-47
2021/09/02 07:32:56;;;;;;;4.63;3.70;;;30.80;67.90;;;;;;5014796;28;20037;-44
2021/09/02 07:35:21;;;;;;;5.40;3.58;;;31.20;68.40;;;;;;5015629;28;20030;-46
2021/09/02 07:37:47;;;;;;;4.47;3.50;;;31.50;65.90;;;;;;5015532;28;20109;-43
2021/09/02 07:40:13;;;;;;;5.45;3.40;;;31.90;64.20;;;;;;5015766;28;20026;-45
2021/09/02 07:42:38;;;;;;;4.32;3.10;;;32.20;61.50;;;;;;5015493;28;20446;-45
2021/09/02 07:45:04;;;;;;;5.60;3.83;;;32.50;60.20;;;;;;5015329;28;20030;-45
2021/09/02 07:47:33;;;;;;;3.88;3.35;;;32.70;57.50;;;;;;5014574;28;20465;-45
2021/09/02 07:49:59;;;;;;;4.15;3.45;;;32.80;55.80;;;;;;5015293;28;20053;-43
2021/09/02 07:52:25;;;;;;;4.88;3.22;;;33.00;52.80;;;;;;5015338;28;20026;-45
2021/09/02 07:54:51;;;;;;;5.05;3.58;;;32.90;50.40;;;;;;5015167;28;20530;-45
2021/09/02 07:57:16;;;;;;;3.95;3.45;;;32.90;48.60;;;;;;5015332;28;20163;-43
2021/09/02 07:59:41;;;;;;;4.68;3.58;;;33.30;48.60;;;;;;5014967;28;20377;-47
2021/09/02 08:02:07;;;;;;;6.07;3.70;;;33.30;46.30;;;;;;5014176;28;20026;-44
2021/09/02 08:04:32;;;;;;;5.30;3.47;;;33.40;45.50;;;;;;5014975;28;20046;-45
2021/09/02 08:06:58;;;;;;;6.57;3.35;;;33.60;44.50;;;;;;5014998;28;20084;-45
2021/09/02 08:09:23;;;;;;;4.72;3.50;;;33.80;43.10;;;;;;5015027;28;20030;-45
2021/09/02 08:11:49;;;;;;;5.15;3.17;;;33.90;42.50;;;;;;5014979;28;20599;-45
2021/09/02 08:14:14;;;;;;;6.25;3.45;;;33.80;39.50;;;;;;5014865;28;20033;-45
2021/09/02 08:16:40;;;;;;;4.63;3.40;;;33.90;39.50;;;;;;5013839;28;20397;-47
2021/09/02 08:19:05;;;;;;;6.35;3.55;;;34.00;38.50;;;;;;5014945;28;20359;-45
2021/09/02 08:21:31;;;;;;;4.22;3.50;;;34.20;37.90;;;;;;5014890;28;20034;-45
2021/09/02 08:23:58;;;;;;;3.75;3.20;;;34.30;37.20;;;;;;5014742;28;20026;-43
2021/09/02 08:26:25;;;;;;;5.22;3.40;;;34.40;36.80;;;;;;5014776;28;20034;-45
2021/09/02 08:28:51;;;;;;;3.78;3.30;;;34.40;35.40;;;;;;5014468;28;20030;-47
2021/09/02 08:31:16;;;;;;;5.10;4.00;;;34.10;33.90;;;;;;5013719;28;20081;-46
2021/09/02 08:33:42;;;;;;;5.82;3.92;;;34.20;33.80;;;;;;5014477;28;20382;-46
2021/09/02 08:36:07;;;;;;;5.00;4.18;;;34.20;33.40;;;;;;5014398;28;20041;-48
2021/09/02 08:38:36;;;;;;;5.40;3.63;;;34.20;31.30;;;;;;5014436;28;20026;-47
2021/09/02 08:41:02;;;;;;;4.10;3.70;;;34.20;32.80;;;;;;5014308;28;20049;-46
2021/09/02 08:43:28;;;;;;;5.43;3.63;;;34.10;32.00;;;;;;5014023;28;20018;-46
2021/09/02 08:45:55;;;;;;;5.07;3.80;;;34.10;31.90;;;;;;5013308;28;20053;-47
2021/09/02 08:48:21;;;;;;;9.73;4.35;;;34.20;31.30;;;;;;5014314;28;20070;-49
2021/09/02 08:50:46;;;;;;;5.45;3.80;;;34.10;28.70;;;;;;5014110;28;20041;-44
2021/09/02 08:53:12;;;;;;;4.80;3.83;;;34.10;30.30;;;;;;5014094;28;20186;-46
2021/09/02 08:55:37;;;;;;;4.75;3.33;;;34.10;29.90;;;;;;5014193;28;20065;-47
2021/09/02 08:58:03;;;;;;;5.10;3.40;;;34.00;29.50;;;;;;5013881;28;20022;-45
2021/09/02 09:00:29;;;;;;;5.43;3.63;;;33.90;29.20;;;;;;5013515;28;20022;-46
2021/09/02 09:03:03;;;;;;;4.50;3.72;;;34.00;29.00;;;;;;5013571;28;20084;-45
2021/09/02 09:05:34;;;;;;;5.22;3.78;;;34.00;28.00;;;;;;5013905;28;20054;-46
2021/09/02 09:08:00;;;;;;;5.28;4.10;;;34.00;27.70;;;;;;5014132;28;20350;-48
2021/09/02 09:10:28;;;;;;;4.28;3.88;;;34.00;28.30;;;;;;5013885;28;20025;-48
2021/09/02 09:13:02;;;;;;;4.53;4.05;;;33.80;27.40;;;;;;5013796;28;20041;-43
2021/09/02 09:15:31;;;;;;;5.10;4.03;;;33.60;27.00;;;;;;5013354;28;20049;-45
2021/09/02 09:18:15;;;;;;;5.75;4.18;;;33.60;28.40;;;;;;5013703;28;20264;-46
2021/09/02 09:20:42;;;;;;;5.40;4.15;;;33.50;27.50;;;;;;5013817;28;20515;-45
2021/09/02 09:23:07;;;;;;;4.45;3.85;;;33.50;28.40;;;;;;5013492;28;20205;-45
2021/09/02 09:25:33;;;;;;;4.88;4.15;;;33.40;28.50;;;;;;5013620;28;20451;-47
2021/09/02 09:28:00;;;;;;;5.32;4.47;;;33.30;28.50;;;;;;5013492;28;20041;-46
2021/09/02 09:30:30;;;;;;;5.57;4.50;;;32.70;28.10;;;;;;5013326;28;20362;-46
2021/09/02 09:33:04;;;;;;;8.18;4.50;;;32.30;28.40;;;;;;5013438;28;20432;-45
2021/09/02 09:35:31;;;;;;;4.80;4.13;;;31.70;29.20;;;;;;5013264;28;20030;-45
2021/09/02 09:38:22;;;;;;;4.97;4.30;;;31.60;29.60;;;;;;5013351;28;20057;-45
2021/09/02 09:40:52;;;;;;;7.10;4.65;;;31.10;29.60;;;;;;5013307;28;20028;-43
2021/09/02 09:43:22;;;;;;;5.10;4.07;;;31.10;30.10;;;;;;5013681;28;20347;-44
2021/09/02 09:45:51;;;;;;;6.95;4.88;;;30.70;30.40;;;;;;5012429;28;20422;-46
2021/09/02 09:48:19;;;;;;;6.72;4.57;;;30.80;30.30;;;;;;5013237;28;20113;-47
2021/09/02 09:50:46;;;;;;;6.65;4.30;;;30.70;30.30;;;;;;5013265;28;20048;-45
2021/09/02 09:53:25;;;;;;;5.78;4.65;;;30.40;31.10;;;;;;5013423;28;20064;-45
2021/09/02 09:55:54;;;;;;;6.47;4.43;;;30.50;31.70;;;;;;5012682;28;20038;-51
2021/09/02 09:58:22;;;;;;;5.53;4.45;;;30.40;31.50;;;;;;5013139;28;20018;-46
2021/09/02 10:00:53;;;;;;;5.50;4.28;;;30.30;32.00;;;;;;5012106;28;20034;-43
2021/09/02 10:03:20;;;;;;;6.45;4.75;;;30.00;32.10;;;;;;5013033;28;20021;-47
2021/09/02 10:05:50;;;;;;;8.57;4.53;;;29.80;32.60;;;;;;5013113;28;20038;-47
2021/09/02 10:08:17;;;;;;;7.88;4.78;;;29.70;33.10;;;;;;5013034;28;20121;-47
2021/09/02 10:10:43;;;;;;;6.43;4.35;;;29.30;33.60;;;;;;5013019;28;20068;-47
2021/09/02 10:13:10;;;;;;;7.43;4.70;;;28.50;34.80;;;;;;5012766;28;20077;-44
2021/09/02 10:15:35;;;;;;;6.10;4.20;;;27.80;36.80;;;;;;5011557;28;20109;-45
2021/09/02 10:18:02;;;;;;;5.93;4.45;;;27.30;38.90;;;;;;5012816;28;20105;-45
2021/09/02 10:20:37;;;;;;;5.80;4.18;;;26.90;40.40;;;;;;5012873;28;20057;-46
2021/09/02 10:23:04;;;;;;;4.90;4.03;;;26.60;41.30;;;;;;5012864;28;20022;-46
2021/09/02 10:28:09;;;;;;;7.00;4.68;;;26.00;44.20;;;;;;5012748;28;20040;-43
2021/09/02 10:30:42;;;;;;;5.78;4.70;;;25.80;44.70;;;;;;5011515;28;20037;-48
2021/09/02 10:33:30;;;;;;;6.22;4.35;;;25.50;49.20;;;;;;5012748;28;20018;-46
2021/09/02 10:35:55;;;;;;;5.93;4.57;;;25.20;50.20;;;;;;5012502;28;20029;-47
2021/09/02 10:38:39;;;;;;;6.00;5.00;;;25.00;49.70;;;;;;5012615;28;20100;-46
2021/09/02 10:41:05;;;;;;;8.05;5.35;;;24.80;54.60;;;;;;5012588;28;20020;-47
2021/09/02 10:43:50;;;;;;;8.02;5.20;;;24.50;54.10;;;;;;5012676;28;20465;-46
2021/09/02 10:46:30;;;;;;;7.70;5.18;;;24.20;58.70;;;;;;5011341;28;20186;-46
2021/09/02 10:49:09;;;;;;;7.43;5.25;;;24.00;59.50;;;;;;5012527;28;20026;-47
2021/09/02 10:51:37;;;;;;;6.90;4.68;;;23.90;58.40;;;;;;5012635;28;20022;-48
2021/09/02 10:54:06;;;;;;;5.88;4.40;;;23.90;59.20;;;;;;5012439;28;20026;-46
2021/09/02 10:56:54;;;;;;;6.20;4.47;;;23.80;60.20;;;;;;5011200;28;20057;-47
2021/09/02 10:59:50;;;;;;;6.90;4.07;;;23.70;64.10;;;;;;5012541;28;20057;-47
2021/09/02 11:02:16;;;;;;;5.95;4.22;;;23.70;64.40;;;;;;5010682;28;20137;-46
2021/09/02 11:04:42;;;;;;;7.20;4.75;;;23.50;61.40;;;;;;5012335;28;20443;-46
2021/09/02 11:07:08;;;;;;;8.52;4.75;;;23.50;61.90;;;;;;5014521;28;20080;-48
2021/09/02 11:09:39;;;;;;;4.95;4.00;;;23.30;62.90;;;;;;5016034;28;20025;-47
2021/09/02 11:12:10;;;;;;;5.97;4.45;;;23.10;66.30;;;;;;5015976;28;20029;-44
2021/09/02 11:14:44;;;;;;;8.90;4.30;;;23.00;65.40;;;;;;5016159;28;20034;-51
2021/09/02 11:17:10;;;;;;;8.88;4.88;;;23.00;66.70;;;;;;5014664;28;20382;-45
2021/09/02 11:19:38;;;;;;;5.88;4.80;;;23.00;68.70;;;;;;5016064;28;20026;-44
2021/09/02 11:22:15;;;;;;;7.80;4.32;;;22.90;69.00;;;;;;5015453;28;20021;-49
2021/09/02 11:24:46;;;;;;;7.15;4.22;;;22.80;70.90;;;;;;5015790;28;20056;-49
2021/09/02 11:27:23;;;;;;;7.15;5.22;;;22.60;71.40;;;;;;5015697;28;20030;-46
2021/09/02 11:29:49;;;;;;;5.50;4.47;;;22.60;71.40;;;;;;5015747;28;20030;-45
2021/09/02 11:32:14;;;;;;;6.50;3.95;;;22.50;71.40;;;;;;5014354;28;20033;-44
2021/09/02 11:34:41;;;;;;;6.97;4.43;;;22.50;71.30;;;;;;5015665;28;20137;-48
2021/09/02 11:37:08;;;;;;;6.57;4.70;;;22.40;72.60;;;;;;5015546;28;20022;-47
2021/09/02 11:39:37;;;;;;;7.45;5.22;;;22.30;74.20;;;;;;5015622;28;20030;-44
2021/09/02 11:42:08;;;;;;;7.15;4.72;;;22.30;73.50;;;;;;5015684;28;20026;-47
2021/09/02 11:44:35;;;;;;;5.68;4.43;;;22.20;74.40;;;;;;5015451;28;20022;-50
2021/09/02 11:47:06;;;;;;;8.55;4.85;;;22.20;75.00;;;;;;5013921;28;20520;-46
2021/09/02 11:49:32;;;;;;;6.95;4.68;;;22.20;76.20;;;;;;5015566;28;20026;-45
2021/09/02 11:51:59;;;;;;;7.57;4.85;;;22.20;76.40;;;;;;5015311;28;20018;-45
2021/09/02 11:54:26;;;;;;;8.13;5.35;;;22.10;77.70;;;;;;5015336;28;20041;-48
2021/09/02 11:56:52;;;;;;;9.10;5.60;;;22.10;78.80;;;;;;5015105;28;20060;-46
2021/09/02 11:59:19;;;;;;;8.73;5.25;;;22.10;79.40;;;;;;5015182;28;20029;-43
2021/09/02 12:01:50;;;;;;;6.50;4.93;;;22.00;78.50;;;;;;5013823;28;20307;-48
2021/09/02 12:04:17;;;;;;;7.40;6.07;;;22.00;79.80;;;;;;5014927;28;20046;-46
2021/09/02 12:06:46;;;;;;;8.73;5.90;;;21.90;81.60;;;;;;5015140;28;20045;-44
2021/09/02 12:09:12;;;;;;;7.53;6.10;;;21.90;81.20;;;;;;5014892;28;20057;-49
2021/09/02 12:11:41;;;;;;;9.52;6.32;;;21.90;82.20;;;;;;5017200;28;20536;-47
2021/09/02 12:14:27;;;;;;;9.25;5.72;;;21.90;85.00;;;;;;5034152;28;20029;-45
2021/09/02 12:17:10;;;;;;;6.80;5.25;;;21.80;89.20;;;;;;5032420;28;20056;-46
2021/09/02 12:19:57;;;;;;;6.68;5.38;;;21.80;88.60;;;;;;5033153;28;20025;-47
2021/09/02 12:22:35;;;;;;;7.22;5.90;;;21.80;87.20;;;;;;5034146;28;20021;-48
2021/09/02 12:25:12;;;;;;;9.48;5.85;;;21.70;86.10;;;;;;5034275;28;20026;-48
2021/09/02 12:28:10;;;;;;;7.93;5.05;;;21.70;86.10;;;;;;5034286;28;20531;-48
2021/09/02 12:30:41;;;;;;;7.25;4.72;;;21.60;89.30;;;;;;5032927;28;20075;-45
2021/09/02 12:33:15;;;;;;;7.35;4.72;;;21.50;87.20;;;;;;5034060;28;20496;-44
2021/09/02 12:35:42;;;;;;;10.18;5.80;;;21.50;88.70;;;;;;5034030;28;20041;-49
2021/09/02 12:38:09;;;;;;;8.88;4.50;;;21.50;89.30;;;;;;5034068;28;20047;-45
2021/09/02 12:40:35;;;;;;;7.25;4.40;;;21.50;89.50;;;;;;5034123;28;20049;-50
2021/09/02 12:43:18;;;;;;;7.88;4.50;;;21.40;90.20;;;;;;5034072;28;20072;-48
2021/09/02 12:45:57;;;;;;;9.02;5.22;;;21.40;91.50;;;;;;5033160;28;20057;-44
2021/09/02 12:48:23;;;;;;;7.60;4.78;;;21.30;92.80;;;;;;5034069;28;20476;-46
2021/09/02 12:50:49;;;;;;;8.63;6.05;;;21.30;92.20;;;;;;5031070;28;20036;-46
2021/09/02 12:53:14;;;;;;;6.57;5.13;;;21.20;91.80;;;;;;5033616;28;20389;-48